Time;durP1;ratioP1;P1;durP2;ratioP2;P2;SDS_P1;SDS_P2;PMS_P1;PMS_P2;Temp;Humidity;BMP_temperature;BMP_pressure;BME280_temperature;BME280_humidity;BME280_pressure;Samples;Min_cycle;Max_cycle;Signal;HPM_P1;HPM_P2
2022/10/31 00:02:55;;;;;;;0.00;0.00;;;;;;;15.65;62.96;98399.00;8274673;28;20233;-84
2022/10/31 00:06:58;;;;;;;0.00;0.00;;;;;;;15.62;62.88;98392.16;8282789;28;20237;-83
2022/10/31 00:11:02;;;;;;;0.00;0.00;;;;;;;15.62;63.15;98401.78;8282789;28;20244;-83
2022/10/31 00:15:05;;;;;;;0.00;0.00;;;;;;;15.67;62.71;98401.50;8282673;28;20244;-85
2022/10/31 00:19:08;;;;;;;0.00;0.00;;;;;;;15.68;63.06;98398.81;8282928;28;20241;-82
2022/10/31 00:23:11;;;;;;;0.00;0.00;;;;;;;15.65;62.63;98401.63;8282803;28;20260;-83
2022/10/31 00:27:15;;;;;;;0.00;0.00;;;;;;;15.56;62.76;98402.13;8282132;28;20267;-84
2022/10/31 00:31:18;;;;;;;0.00;0.00;;;;;;;15.73;62.95;98407.25;8282451;28;20240;-83
2022/10/31 00:35:21;;;;;;;0.00;0.00;;;;;;;15.56;63.20;98397.75;8282291;28;20512;-83
2022/10/31 00:39:24;;;;;;;0.10;0.10;;;;;;;15.54;63.60;98398.78;8282503;28;20280;-83
2022/10/31 00:43:28;;;;;;;0.00;0.00;;;;;;;15.52;63.96;98406.69;8282290;28;20237;-84
2022/10/31 00:47:30;;;;;;;0.10;0.10;;;;;;;15.40;63.73;98407.38;8282152;28;20440;-85
2022/10/31 00:51:33;;;;;;;0.10;0.10;;;;;;;15.43;64.10;98407.22;8282081;28;20229;-84
2022/10/31 00:55:36;;;;;;;0.00;0.00;;;;;;;15.60;64.07;98408.84;8281887;28;20448;-84
2022/10/31 00:59:40;;;;;;;0.00;0.00;;;;;;;15.67;63.57;98406.72;8281630;28;20238;-85
2022/10/31 01:03:42;;;;;;;0.10;0.10;;;;;;;15.52;63.66;98403.25;8281482;28;20523;-84
2022/10/31 01:07:45;;;;;;;0.20;0.20;;;;;;;15.37;64.48;98408.41;8281357;28;20260;-80
2022/10/31 01:11:48;;;;;;;0.03;0.03;;;;;;;15.41;64.77;98396.84;8281358;28;20312;-82
2022/10/31 01:15:56;;;;;;;0.10;0.10;;;;;;;15.41;65.13;98396.03;8281268;28;20237;-81
2022/10/31 01:19:58;;;;;;;0.00;0.00;;;;;;;15.49;64.72;98406.03;8283516;28;20233;-82
2022/10/31 01:24:02;;;;;;;0.00;0.00;;;;;;;15.38;64.25;98407.50;8288010;28;20292;-81
2022/10/31 01:28:05;;;;;;;0.10;0.10;;;;;;;15.23;64.34;98403.97;8287453;28;20413;-81
2022/10/31 01:32:09;;;;;;;0.10;0.10;;;;;;;15.23;64.48;98403.97;8287444;28;20288;-82
2022/10/31 01:36:14;;;;;;;0.03;0.03;;;;;;;15.21;64.33;98404.97;8287208;28;20516;-82
2022/10/31 01:40:16;;;;;;;0.00;0.00;;;;;;;15.23;64.08;98403.13;8287344;28;20287;-82
2022/10/31 01:44:54;;;;;;;0.00;0.00;;;;;;;15.28;63.55;98401.09;8287141;28;20396;-81
2022/10/31 01:49:00;;;;;;;0.00;0.00;;;;;;;15.15;63.27;98400.94;8286113;28;20244;-81
2022/10/31 01:53:03;;;;;;;0.00;0.00;;;;;;;15.12;63.35;98398.50;8286965;28;20284;-81
2022/10/31 01:57:08;;;;;;;0.00;0.00;;;;;;;15.09;63.27;98395.25;8286931;28;20225;-81
2022/10/31 02:01:11;;;;;;;0.00;0.00;;;;;;;15.02;63.42;98395.59;8286487;28;20230;-81
2022/10/31 02:05:18;;;;;;;0.00;0.00;;;;;;;15.07;62.51;98397.09;8286441;28;20256;-81
2022/10/31 02:09:23;;;;;;;0.00;0.00;;;;;;;14.99;62.43;98400.97;8286505;28;20452;-81
2022/10/31 02:13:26;;;;;;;0.00;0.00;;;;;;;14.97;62.27;98400.19;8286172;28;20233;-82
2022/10/31 02:17:30;;;;;;;0.00;0.00;;;;;;;14.90;62.70;98395.41;8286093;28;20229;-81
2022/10/31 02:21:39;;;;;;;0.00;0.00;;;;;;;14.92;62.87;98393.56;8286121;28;20233;-81
2022/10/31 02:25:52;;;;;;;0.00;0.00;;;;;;;14.91;62.60;98394.47;8285610;28;20225;-81
2022/10/31 02:30:08;;;;;;;0.00;0.00;;;;;;;14.90;63.13;98390.19;8284886;28;20237;-81
2022/10/31 02:34:17;;;;;;;0.00;0.00;;;;;;;14.92;63.47;98385.75;8285702;28;20234;-82
2022/10/31 02:38:26;;;;;;;0.10;0.10;;;;;;;14.92;63.32;98388.34;8285794;28;20545;-81
2022/10/31 02:42:33;;;;;;;0.00;0.00;;;;;;;14.89;63.15;98386.75;8285613;28;20520;-81
2022/10/31 02:46:39;;;;;;;0.00;0.00;;;;;;;14.74;63.49;98377.19;8285594;28;20421;-81
2022/10/31 02:50:47;;;;;;;0.00;0.00;;;;;;;14.82;63.68;98374.97;8285629;28;20241;-81
2022/10/31 02:54:50;;;;;;;0.10;0.10;;;;;;;14.82;63.78;98375.81;8284880;28;20241;-81
2022/10/31 02:58:56;;;;;;;0.00;0.00;;;;;;;14.81;63.99;98379.34;8284123;28;20225;-80
2022/10/31 03:03:04;;;;;;;0.03;0.03;;;;;;;14.87;63.94;98383.41;8284420;28;20245;-81
2022/10/31 03:07:17;;;;;;;0.10;0.10;;;;;;;14.78;63.48;98383.91;8284735;28;20464;-81
2022/10/31 03:11:25;;;;;;;0.10;0.10;;;;;;;14.75;62.97;98387.50;8284581;28;20417;-81
2022/10/31 03:15:30;;;;;;;0.07;0.07;;;;;;;14.66;63.00;98383.66;8284043;28;20241;-82
2022/10/31 03:19:35;;;;;;;0.00;0.00;;;;;;;14.73;63.81;98385.91;8284143;28;20236;-81
2022/10/31 03:23:40;;;;;;;0.00;0.00;;;;;;;14.74;63.14;98385.00;8283811;28;20260;-81
2022/10/31 03:27:43;;;;;;;0.00;0.00;;;;;;;14.73;62.69;98389.34;8283676;28;20325;-82
2022/10/31 03:31:48;;;;;;;0.10;0.10;;;;;;;14.66;63.11;98391.47;8283652;28;20238;-82
2022/10/31 03:35:52;;;;;;;0.00;0.00;;;;;;;14.61;63.17;98393.47;8283984;28;20453;-81
2022/10/31 03:39:57;;;;;;;0.00;0.00;;;;;;;14.70;63.40;98392.13;8283012;28;20226;-81
2022/10/31 03:44:03;;;;;;;0.10;0.10;;;;;;;14.71;62.83;98399.03;8282555;28;20244;-80
2022/10/31 03:48:06;;;;;;;0.00;0.00;;;;;;;14.64;63.37;98393.31;8283030;28;20483;-82
2022/10/31 03:52:15;;;;;;;0.10;0.10;;;;;;;14.71;63.41;98396.41;8282951;28;20233;-81
2022/10/31 03:56:24;;;;;;;0.00;0.00;;;;;;;14.54;63.70;98402.50;8283080;28;20229;-81
2022/10/31 04:00:26;;;;;;;0.10;0.10;;;;;;;14.59;63.88;98410.13;8282988;28;20288;-81
2022/10/31 04:04:30;;;;;;;0.00;0.00;;;;;;;14.62;63.62;98407.34;8282729;28;20238;-82
2022/10/31 04:08:34;;;;;;;0.00;0.00;;;;;;;14.57;63.81;98404.97;8282700;28;20237;-81
2022/10/31 04:12:39;;;;;;;0.10;0.10;;;;;;;14.45;64.02;98400.41;8282536;28;20470;-81
2022/10/31 04:16:44;;;;;;;0.10;0.10;;;;;;;14.51;63.99;98399.22;8282624;28;20233;-81
2022/10/31 04:20:49;;;;;;;0.00;0.00;;;;;;;14.48;64.00;98389.81;8282560;28;20241;-82
2022/10/31 04:24:52;;;;;;;0.00;0.00;;;;;;;14.44;64.47;98391.72;8281768;28;20269;-79
2022/10/31 04:28:56;;;;;;;0.10;0.10;;;;;;;14.41;64.89;98384.09;8282094;28;20529;-81
2022/10/31 04:32:59;;;;;;;0.10;0.10;;;;;;;14.41;64.74;98389.31;8282162;28;20299;-79
2022/10/31 04:37:02;;;;;;;0.10;0.10;;;;;;;14.52;64.58;98391.31;8282417;28;20344;-81
2022/10/31 04:41:05;;;;;;;0.10;0.10;;;;;;;14.43;64.57;98382.25;8282455;28;20547;-82
2022/10/31 04:45:10;;;;;;;0.00;0.00;;;;;;;14.46;64.56;98389.88;8281847;28;20237;-81
2022/10/31 04:49:19;;;;;;;0.10;0.10;;;;;;;14.30;65.18;98381.22;8282040;28;20247;-81
2022/10/31 04:53:22;;;;;;;0.10;0.10;;;;;;;14.40;65.12;98379.78;8282087;28;20454;-81
2022/10/31 04:57:25;;;;;;;0.10;0.10;;;;;;;14.38;64.42;98384.25;8288628;28;20228;-81
2022/10/31 05:01:29;;;;;;;0.00;0.00;;;;;;;14.39;64.02;98380.72;8288923;28;20233;-82
2022/10/31 05:05:32;;;;;;;0.00;0.00;;;;;;;14.40;63.74;98385.00;8288556;28;20240;-81
2022/10/31 05:09:35;;;;;;;0.03;0.03;;;;;;;14.38;64.37;98380.81;8288305;28;20225;-81
2022/10/31 05:13:37;;;;;;;0.00;0.00;;;;;;;14.33;63.96;98382.81;8287937;28;20237;-81
2022/10/31 05:17:42;;;;;;;0.00;0.00;;;;;;;14.35;64.18;98383.56;8288104;28;20424;-81
2022/10/31 05:21:44;;;;;;;0.00;0.00;;;;;;;14.36;64.08;98386.09;8287904;28;20237;-81
2022/10/31 05:25:47;;;;;;;0.07;0.07;;;;;;;14.28;64.59;98376.09;8287698;28;20233;-81
2022/10/31 05:29:50;;;;;;;0.10;0.10;;;;;;;14.37;64.75;98377.34;8287571;28;20533;-81
2022/10/31 05:33:54;;;;;;;0.10;0.10;;;;;;;14.36;64.51;98378.28;8286975;28;20301;-80
2022/10/31 05:37:58;;;;;;;0.10;0.10;;;;;;;14.43;65.22;98384.00;8287527;28;20551;-81
2022/10/31 05:42:01;;;;;;;0.10;0.10;;;;;;;14.43;65.03;98373.56;8286994;28;20241;-80
2022/10/31 05:46:03;;;;;;;0.10;0.10;;;;;;;14.50;65.07;98382.75;8287167;28;20246;-82
2022/10/31 05:50:08;;;;;;;0.10;0.10;;;;;;;14.56;64.97;98385.00;8287560;28;20517;-81
2022/10/31 05:54:11;;;;;;;0.10;0.10;;;;;;;14.45;64.64;98383.00;8286994;28;20462;-81
2022/10/31 05:58:17;;;;;;;0.10;0.10;;;;;;;14.48;65.15;98387.19;8286408;28;20249;-82
2022/10/31 06:02:20;;;;;;;0.10;0.10;;;;;;;14.46;64.60;98382.06;8286613;28;20229;-81
2022/10/31 06:06:24;;;;;;;0.10;0.10;;;;;;;14.40;64.75;98377.19;8286275;28;20237;-81
2022/10/31 06:10:27;;;;;;;0.20;0.20;;;;;;;14.41;65.13;98383.22;8286419;28;20233;-82
2022/10/31 06:14:30;;;;;;;0.20;0.20;;;;;;;14.41;65.44;98385.84;8286369;28;20233;-82
2022/10/31 06:18:33;;;;;;;0.10;0.10;;;;;;;14.41;65.63;98381.50;8286311;28;20233;-82
2022/10/31 06:22:37;;;;;;;0.10;0.10;;;;;;;14.40;65.53;98385.00;8286323;28;20229;-81
2022/10/31 06:26:40;;;;;;;0.00;0.00;;;;;;;14.43;64.95;98381.38;8285877;28;20229;-81
2022/10/31 06:30:43;;;;;;;0.10;0.10;;;;;;;14.44;64.79;98380.47;8286289;28;20265;-81
2022/10/31 06:34:47;;;;;;;0.10;0.10;;;;;;;14.46;64.76;98384.66;8285712;28;20237;-82
2022/10/31 06:38:52;;;;;;;0.00;0.00;;;;;;;14.53;64.72;98392.19;8285398;28;20233;-81
2022/10/31 06:42:58;;;;;;;0.10;0.10;;;;;;;14.52;64.14;98390.47;8284859;28;20252;-81
2022/10/31 06:47:01;;;;;;;0.10;0.10;;;;;;;14.51;64.23;98401.81;8285205;28;20245;-81
2022/10/31 06:51:04;;;;;;;0.00;0.00;;;;;;;14.51;64.49;98394.88;8284924;28;20260;-81
2022/10/31 06:55:08;;;;;;;0.00;0.00;;;;;;;14.63;64.58;98396.84;8285136;28;20283;-81
2022/10/31 06:59:11;;;;;;;0.00;0.00;;;;;;;14.66;65.00;98396.69;8284820;28;20292;-81
2022/10/31 07:03:15;;;;;;;0.13;0.13;;;;;;;14.68;64.27;98400.94;8284762;28;20242;-81
2022/10/31 07:07:20;;;;;;;0.10;0.10;;;;;;;14.66;64.47;98398.44;8284664;28;20425;-81
2022/10/31 07:11:24;;;;;;;0.00;0.00;;;;;;;14.76;64.56;98404.00;8284291;28;20233;-81
2022/10/31 07:15:29;;;;;;;0.10;0.10;;;;;;;14.83;64.29;98403.59;8284425;28;20233;-81
2022/10/31 07:19:32;;;;;;;0.00;0.00;;;;;;;14.98;63.72;98401.91;8283774;28;20233;-81
2022/10/31 07:23:34;;;;;;;0.10;0.10;;;;;;;14.94;64.37;98410.78;8284505;28;20237;-82
2022/10/31 07:27:39;;;;;;;0.00;0.00;;;;;;;15.00;63.67;98413.09;8283956;28;20292;-81
2022/10/31 07:31:46;;;;;;;0.00;0.00;;;;;;;14.92;63.93;98417.88;8283955;28;20525;-82
2022/10/31 07:35:49;;;;;;;0.00;0.00;;;;;;;14.94;64.30;98413.41;8283198;28;20233;-82
2022/10/31 07:39:51;;;;;;;0.00;0.00;;;;;;;14.96;64.20;98411.56;8283663;28;20234;-82
2022/10/31 07:43:56;;;;;;;0.00;0.00;;;;;;;15.03;64.48;98418.13;8282972;28;20233;-81
2022/10/31 07:47:59;;;;;;;0.00;0.00;;;;;;;15.09;64.61;98413.50;8283263;28;20237;-80
2022/10/31 07:52:02;;;;;;;0.00;0.00;;;;;;;15.16;64.92;98420.06;8283542;28;20284;-80
2022/10/31 07:56:05;;;;;;;0.00;0.00;;;;;;;15.19;64.55;98418.13;8282765;28;20233;-83
2022/10/31 08:00:11;;;;;;;0.00;0.00;;;;;;;15.37;64.39;98418.00;8283246;28;20532;-81
2022/10/31 08:04:13;;;;;;;0.03;0.03;;;;;;;15.36;64.91;98422.38;8282670;28;20429;-81
2022/10/31 08:08:16;;;;;;;0.00;0.00;;;;;;;15.40;64.71;98408.25;8282766;28;20225;-81
2022/10/31 08:12:19;;;;;;;0.00;0.00;;;;;;;15.52;64.74;98403.25;8282668;28;20225;-81
2022/10/31 08:16:23;;;;;;;0.00;0.00;;;;;;;15.56;64.51;98404.75;8282952;28;20233;-82
2022/10/31 08:20:26;;;;;;;0.00;0.00;;;;;;;15.64;64.99;98400.75;8282612;28;20229;-82
2022/10/31 08:24:28;;;;;;;0.00;0.00;;;;;;;15.70;64.58;98409.16;8282462;28;20237;-81
2022/10/31 08:28:31;;;;;;;0.00;0.00;;;;;;;15.83;64.35;98407.53;8281519;28;20229;-81
2022/10/31 08:32:35;;;;;;;0.10;0.10;;;;;;;15.76;64.64;98403.59;8282265;28;20237;-82
2022/10/31 08:36:38;;;;;;;0.00;0.00;;;;;;;15.81;65.06;98399.78;8281222;28;20529;-81
2022/10/31 08:40:41;;;;;;;0.10;0.10;;;;;;;15.97;64.56;98394.53;8282337;28;20236;-81
2022/10/31 08:44:43;;;;;;;0.00;0.00;;;;;;;16.06;64.91;98400.13;8281813;28;20237;-83
2022/10/31 08:48:50;;;;;;;0.00;0.00;;;;;;;16.24;63.82;98393.78;8282431;28;20237;-83
2022/10/31 08:52:52;;;;;;;0.00;0.00;;;;;;;16.37;70.27;98393.88;8280936;28;20237;-81
2022/10/31 08:57:07;;;;;;;0.00;0.00;;;;;;;16.47;64.87;98395.00;8282124;28;20233;-83
2022/10/31 09:01:10;;;;;;;0.00;0.00;;;;;;;16.54;63.88;98392.84;8282025;28;20229;-82
2022/10/31 09:05:15;;;;;;;0.00;0.00;;;;;;;16.58;64.41;98389.09;8281750;28;20233;-83
2022/10/31 09:09:18;;;;;;;0.00;0.00;;;;;;;16.61;64.36;98381.06;8281726;28;20229;-83
2022/10/31 09:13:22;;;;;;;0.00;0.00;;;;;;;16.71;64.31;98381.31;8281682;28;20397;-84
2022/10/31 09:17:30;;;;;;;0.00;0.00;;;;;;;16.77;64.58;98380.94;8281533;28;20229;-82
2022/10/31 09:21:34;;;;;;;0.00;0.00;;;;;;;16.94;63.72;98377.28;8281556;28;20241;-83
2022/10/31 09:25:37;;;;;;;0.00;0.00;;;;;;;17.14;64.46;98379.47;8281625;28;20229;-81
2022/10/31 09:29:39;;;;;;;0.00;0.00;;;;;;;17.34;63.28;98377.31;8281234;28;20233;-82
2022/10/31 09:33:42;;;;;;;0.00;0.00;;;;;;;17.24;63.26;98377.09;8281225;28;20428;-82
2022/10/31 09:37:47;;;;;;;0.00;0.00;;;;;;;17.35;63.26;98377.22;8281326;28;20242;-82
2022/10/31 09:42:10;;;;;;;0.00;0.00;;;;;;;17.98;73.25;98372.22;8284920;28;20234;-78
2022/10/31 09:46:16;;;;;;;0.00;0.00;;;;;;;17.80;67.56;98379.53;8286722;28;20245;-77
2022/10/31 09:50:21;;;;;;;0.00;0.00;;;;;;;18.19;67.41;98366.47;8287371;28;20233;-77
2022/10/31 09:54:29;;;;;;;0.00;0.00;;;;;;;18.40;63.62;98366.75;8287019;28;20280;-79
2022/10/31 09:58:44;;;;;;;0.00;0.00;;;;;;;18.20;62.72;98363.72;8286743;28;20252;-78
2022/10/31 10:02:51;;;;;;;0.00;0.00;;;;;;;18.61;61.94;98359.16;8287069;28;20246;-84
2022/10/31 10:06:54;;;;;;;0.00;0.00;;;;;;;18.50;61.53;98357.28;8286606;28;20539;-84
2022/10/31 10:11:04;;;;;;;0.00;0.00;;;;;;;18.47;62.41;98360.97;8288025;28;20448;-81
2022/10/31 10:15:30;;;;;;;0.00;0.00;;;;;;;18.95;60.91;98361.03;8286971;28;20633;-82
2022/10/31 10:19:49;;;;;;;0.00;0.00;;;;;;;19.58;59.30;98346.88;8286635;28;20231;-77
2022/10/31 10:24:02;;;;;;;0.00;0.00;;;;;;;19.73;58.39;98349.19;8286189;28;20250;-76
2022/10/31 10:28:12;;;;;;;0.00;0.00;;;;;;;19.95;58.25;98346.72;8285435;28;20241;-76
2022/10/31 10:32:20;;;;;;;0.00;0.00;;;;;;;20.08;58.21;98344.81;8286017;28;20232;-76
2022/10/31 10:36:27;;;;;;;0.00;0.00;;;;;;;19.91;58.73;98338.22;8285803;28;20559;-76
2022/10/31 10:40:30;;;;;;;0.00;0.00;;;;;;;19.86;57.87;98340.38;8285463;28;20256;-76
2022/10/31 10:49:00;;;;;;;0.00;0.00;;;;;;;19.92;58.35;98318.88;8284598;28;20278;-75
2022/10/31 10:53:20;;;;;;;0.00;0.00;;;;;;;19.96;58.05;98309.81;8284513;28;20432;-76
2022/10/31 10:57:30;;;;;;;0.00;0.00;;;;;;;19.91;59.11;98312.81;8284875;28;20423;-76
2022/10/31 11:01:34;;;;;;;0.00;0.00;;;;;;;19.94;59.10;98303.00;8284938;28;20403;-75
2022/10/31 11:05:40;;;;;;;0.00;0.00;;;;;;;20.01;59.01;98302.41;8284552;28;20256;-76
2022/10/31 11:09:43;;;;;;;0.00;0.00;;;;;;;19.91;59.01;98302.28;8284366;28;20279;-76
2022/10/31 11:13:48;;;;;;;0.00;0.00;;;;;;;19.89;58.75;98292.84;8284617;28;20243;-76
2022/10/31 11:17:53;;;;;;;0.00;0.00;;;;;;;19.86;59.10;98286.03;8284535;28;20286;-76
2022/10/31 11:22:06;;;;;;;0.00;0.00;;;;;;;19.86;60.01;98274.69;8283619;28;20528;-75
2022/10/31 11:26:19;;;;;;;0.00;0.00;;;;;;;19.95;60.27;98275.75;8284151;28;20307;-76
2022/10/31 11:30:22;;;;;;;0.00;0.00;;;;;;;19.98;59.85;98271.09;8284257;28;20252;-76
2022/10/31 11:34:33;;;;;;;0.00;0.00;;;;;;;19.97;59.95;98261.56;8283907;28;20236;-76
2022/10/31 11:38:41;;;;;;;0.00;0.00;;;;;;;20.00;60.45;98247.31;8283624;28;20231;-77
2022/10/31 11:42:44;;;;;;;0.00;0.00;;;;;;;20.00;60.55;98244.69;8283578;28;20327;-77
2022/10/31 11:46:49;;;;;;;0.00;0.00;;;;;;;20.06;60.67;98234.53;8283513;28;20240;-76
2022/10/31 11:50:56;;;;;;;0.00;0.00;;;;;;;20.06;62.07;98233.69;8283308;28;20231;-76
2022/10/31 11:55:00;;;;;;;0.00;0.00;;;;;;;20.08;62.42;98232.59;8282777;28;20244;-76
2022/10/31 11:59:05;;;;;;;0.00;0.00;;;;;;;20.13;62.65;98224.38;8283226;28;20435;-76
2022/10/31 12:03:15;;;;;;;0.00;0.00;;;;;;;20.14;63.17;98217.31;8282905;28;20252;-77
2022/10/31 12:07:19;;;;;;;0.00;0.00;;;;;;;20.19;63.17;98223.88;8283033;28;20539;-76
2022/10/31 12:11:33;;;;;;;0.00;0.00;;;;;;;20.23;63.15;98224.47;8283011;28;20275;-75
2022/10/31 12:15:37;;;;;;;0.00;0.00;;;;;;;20.28;63.10;98211.78;8282915;28;20301;-75
2022/10/31 12:19:43;;;;;;;0.00;0.00;;;;;;;20.37;62.39;98202.31;8282140;28;20553;-75
2022/10/31 12:23:57;;;;;;;0.00;0.00;;;;;;;20.35;63.00;98204.22;8282064;28;20242;-74
2022/10/31 12:28:31;;;;;;;0.00;0.00;;;;;;;20.44;62.89;98187.72;8281955;28;20263;-75
2022/10/31 12:32:41;;;;;;;0.00;0.00;;;;;;;20.48;62.98;98179.44;8282317;28;20235;-75
2022/10/31 12:36:50;;;;;;;0.00;0.00;;;;;;;20.54;63.25;98180.72;8282480;28;20240;-74
2022/10/31 12:41:07;;;;;;;0.00;0.00;;;;;;;20.55;62.68;98171.88;8287750;28;20240;-74
2022/10/31 12:45:25;;;;;;;0.00;0.00;;;;;;;20.50;62.19;98177.53;8282282;28;20229;-74
2022/10/31 12:49:38;;;;;;;0.00;0.00;;;;;;;20.43;62.12;98171.09;8281804;28;20257;-75
2022/10/31 12:53:51;;;;;;;0.00;0.00;;;;;;;20.31;62.80;98174.72;8282131;28;20236;-74
2022/10/31 12:58:00;;;;;;;0.00;0.00;;;;;;;20.26;62.82;98164.56;8282116;28;20520;-76
2022/10/31 13:02:11;;;;;;;0.00;0.00;;;;;;;20.20;63.00;98158.97;8282592;28;20468;-76
2022/10/31 13:06:19;;;;;;;0.00;0.00;;;;;;;20.16;63.71;98147.84;8282552;28;20398;-76
2022/10/31 13:10:24;;;;;;;0.00;0.00;;;;;;;20.02;63.56;98145.53;8283091;28;20240;-75
2022/10/31 13:14:31;;;;;;;0.00;0.00;;;;;;;20.03;63.32;98144.53;8282949;28;20288;-75
2022/10/31 13:18:40;;;;;;;0.00;0.00;;;;;;;19.93;63.40;98133.94;8289170;28;20310;-76
2022/10/31 13:22:45;;;;;;;0.00;0.00;;;;;;;19.89;63.62;98135.16;8288864;28;20241;-76
2022/10/31 13:26:51;;;;;;;0.00;0.00;;;;;;;19.82;64.06;98132.19;8288789;28;20617;-75
2022/10/31 13:30:55;;;;;;;0.00;0.00;;;;;;;19.73;64.40;98122.41;8288194;28;20244;-75
2022/10/31 13:34:59;;;;;;;0.00;0.00;;;;;;;19.63;64.55;98118.78;8288402;28;20240;-76
2022/10/31 13:39:18;;;;;;;0.00;0.00;;;;;;;19.65;64.61;98111.66;8288477;28;20391;-76
2022/10/31 13:43:27;;;;;;;0.00;0.00;;;;;;;19.57;64.22;98109.59;8287987;28;20236;-76
2022/10/31 13:47:31;;;;;;;0.00;0.00;;;;;;;19.55;64.59;98106.25;8287842;28;20247;-77
2022/10/31 13:51:35;;;;;;;0.00;0.00;;;;;;;19.52;64.76;98106.53;8288210;28;20231;-76
2022/10/31 13:55:40;;;;;;;0.00;0.00;;;;;;;19.56;65.08;98096.63;8287460;28;20239;-77
2022/10/31 13:59:49;;;;;;;0.00;0.00;;;;;;;19.59;64.51;98089.31;8287584;28;20239;-76
2022/10/31 14:04:01;;;;;;;0.00;0.00;;;;;;;19.58;64.86;98095.53;8287496;28;20288;-76
2022/10/31 14:08:20;;;;;;;0.00;0.00;;;;;;;19.47;65.33;98082.41;8286686;28;20473;-77
2022/10/31 14:12:26;;;;;;;0.00;0.00;;;;;;;19.50;65.44;98074.28;8287142;28;20233;-76
2022/10/31 14:16:31;;;;;;;0.00;0.00;;;;;;;19.45;65.93;98066.75;8287090;28;20409;-76
2022/10/31 14:20:42;;;;;;;0.00;0.00;;;;;;;19.38;66.00;98070.84;8286844;28;20249;-76
2022/10/31 14:24:45;;;;;;;0.00;0.00;;;;;;;19.30;66.60;98070.59;8286800;28;20236;-76
2022/10/31 14:28:49;;;;;;;0.00;0.00;;;;;;;19.28;66.53;98060.22;8286257;28;20248;-76
2022/10/31 14:32:53;;;;;;;0.00;0.00;;;;;;;19.28;66.15;98064.63;8286595;28;20254;-76
2022/10/31 14:37:31;;;;;;;0.00;0.00;;;;;;;19.27;66.00;98063.81;8285902;28;20418;-76
2022/10/31 14:41:51;;;;;;;0.00;0.00;;;;;;;19.16;66.17;98053.31;8278811;28;20235;-77
2022/10/31 14:45:59;;;;;;;0.00;0.00;;;;;;;19.13;66.53;98048.28;8285739;28;20235;-77
2022/10/31 14:50:21;;;;;;;0.00;0.00;;;;;;;19.06;66.94;98042.69;8285958;28;20240;-76
2022/10/31 14:54:30;;;;;;;0.00;0.00;;;;;;;19.05;66.92;98034.94;8285520;28;20250;-76
2022/10/31 14:58:38;;;;;;;0.00;0.00;;;;;;;18.98;67.24;98031.13;8285575;28;20428;-76
2022/10/31 15:02:46;;;;;;;0.00;0.00;;;;;;;19.19;70.62;98031.22;8285804;28;20236;-76
2022/10/31 15:06:51;;;;;;;0.00;0.00;;;;;;;19.26;70.93;98028.00;8285734;28;20416;-76
2022/10/31 15:11:11;;;;;;;0.00;0.00;;;;;;;19.40;69.66;98018.19;8284956;28;20258;-75
2022/10/31 15:15:16;;;;;;;0.00;0.00;;;;;;;19.42;68.99;98017.13;8285471;28;20537;-76
2022/10/31 15:19:23;;;;;;;0.00;0.00;;;;;;;19.22;67.24;98012.63;8285653;28;20237;-89
2022/10/31 15:23:27;;;;;;;0.00;0.00;;;;;;;19.01;67.50;98015.97;8285699;28;20252;-90
2022/10/31 15:27:33;;;;;;;0.00;0.00;;;;;;;18.92;67.49;98014.06;8284880;28;20311;-84
2022/10/31 15:31:36;;;;;;;0.00;0.00;;;;;;;18.81;67.76;98009.66;8284912;28;20232;-82
2022/10/31 15:35:38;;;;;;;0.00;0.00;;;;;;;18.73;67.90;98004.13;8285258;28;20231;-80
2022/10/31 15:39:41;;;;;;;0.00;0.00;;;;;;;18.67;68.19;97999.34;8284503;28;20233;-81
2022/10/31 15:43:48;;;;;;;0.00;0.00;;;;;;;18.56;68.34;97995.78;8285221;28;20302;-90
2022/10/31 15:47:56;;;;;;;0.00;0.00;;;;;;;18.54;68.28;98002.94;8284974;28;20242;-89
2022/10/31 15:52:04;;;;;;;0.00;0.00;;;;;;;18.48;68.41;98006.00;8285337;28;20239;-87
2022/10/31 15:56:08;;;;;;;0.00;0.00;;;;;;;18.46;68.63;97996.59;8285333;28;20307;-89
2022/10/31 16:00:25;;;;;;;0.00;0.00;;;;;;;18.23;69.08;97991.28;8285213;28;20250;-86
2022/10/31 16:04:29;;;;;;;0.00;0.00;;;;;;;18.24;69.08;97979.00;8283679;28;20251;-80
2022/10/31 16:08:35;;;;;;;0.00;0.00;;;;;;;18.24;69.43;97976.41;8283202;28;20236;-84
2022/10/31 16:12:44;;;;;;;0.00;0.00;;;;;;;18.24;68.94;97986.88;8283333;28;20577;-85
2022/10/31 16:16:51;;;;;;;0.00;0.00;;;;;;;18.15;69.18;97988.44;8283610;28;20243;-81
2022/10/31 16:20:55;;;;;;;0.00;0.00;;;;;;;18.04;69.64;97986.59;8274154;28;20225;-79
2022/10/31 16:25:02;;;;;;;0.00;0.00;;;;;;;17.99;69.39;97993.94;8282491;28;20286;-79
2022/10/31 16:29:04;;;;;;;0.00;0.00;;;;;;;18.00;69.12;98000.88;8282498;28;20241;-81
2022/10/31 16:33:24;;;;;;;0.00;0.00;;;;;;;18.05;68.77;98013.63;8282809;28;20258;-80
2022/10/31 16:37:27;;;;;;;0.57;0.17;;;;;;;17.95;69.53;98010.84;8282210;28;20545;-81
2022/10/31 16:41:30;;;;;;;0.00;0.00;;;;;;;18.00;72.56;98008.75;8282343;28;20234;-77
2022/10/31 16:45:34;;;;;;;0.00;0.00;;;;;;;17.91;68.91;98004.19;8282437;28;20234;-81
2022/10/31 16:49:38;;;;;;;0.00;0.00;;;;;;;17.87;68.69;97997.50;8281021;28;20234;-82
2022/10/31 16:53:41;;;;;;;0.00;0.00;;;;;;;17.90;67.91;98003.34;8282067;28;20226;-78
2022/10/31 16:57:51;;;;;;;0.00;0.00;;;;;;;18.32;67.06;98001.09;8281751;28;20238;-78
2022/10/31 17:01:54;;;;;;;0.00;0.00;;;;;;;18.89;63.62;98007.28;8281533;28;20227;-81
2022/10/31 17:05:58;;;;;;;0.00;0.00;;;;;;;19.08;63.17;98017.16;8282172;28;20237;-81
2022/10/31 17:10:01;;;;;;;0.00;0.00;;;;;;;19.19;62.15;98020.72;8283666;28;20237;-79
2022/10/31 17:14:04;;;;;;;0.00;0.00;;;;;;;18.92;62.88;98019.31;8282176;28;20236;-80
2022/10/31 17:18:07;;;;;;;0.00;0.00;;;;;;;18.92;62.84;98012.28;8282059;28;20236;-81
2022/10/31 17:22:11;;;;;;;0.00;0.00;;;;;;;18.82;62.89;98007.88;8281703;28;20244;-80
2022/10/31 17:26:14;;;;;;;0.00;0.00;;;;;;;18.76;62.89;98009.97;8281888;28;20228;-79
2022/10/31 17:30:18;;;;;;;0.00;0.00;;;;;;;18.49;64.12;97997.19;8281678;28;20338;-79
2022/10/31 17:34:21;;;;;;;0.00;0.00;;;;;;;18.58;63.88;98000.06;8281368;28;20578;-80
2022/10/31 17:38:25;;;;;;;0.00;0.00;;;;;;;18.59;63.44;97992.06;8281725;28;20520;-80
2022/10/31 17:42:28;;;;;;;0.00;0.00;;;;;;;18.56;63.50;97993.16;8281221;28;20402;-80
2022/10/31 17:46:31;;;;;;;0.00;0.00;;;;;;;18.66;63.11;97995.06;8281443;28;20239;-78
2022/10/31 17:50:33;;;;;;;0.00;0.00;;;;;;;18.53;62.62;97987.31;8281225;28;20242;-78
2022/10/31 17:54:37;;;;;;;0.00;0.00;;;;;;;18.50;62.94;97979.66;8281507;28;20235;-79
2022/10/31 17:58:40;;;;;;;0.00;0.00;;;;;;;18.53;62.54;97990.75;8281272;28;20236;-81
2022/10/31 18:02:43;;;;;;;0.00;0.00;;;;;;;18.61;61.56;97995.41;8284644;28;20247;-80
2022/10/31 18:06:47;;;;;;;0.00;0.00;;;;;;;18.53;61.59;98001.25;8286942;28;20550;-80
2022/10/31 18:10:51;;;;;;;0.00;0.00;;;;;;;18.63;61.02;98004.00;8286596;28;20233;-82
2022/10/31 18:14:54;;;;;;;0.00;0.00;;;;;;;18.46;60.96;98002.66;8286618;28;20240;-82
2022/10/31 18:19:00;;;;;;;0.00;0.00;;;;;;;18.49;60.62;97993.75;8286243;28;20232;-80
2022/10/31 18:23:03;;;;;;;0.00;0.00;;;;;;;18.26;60.75;97998.06;8286531;28;20235;-80
2022/10/31 18:27:07;;;;;;;0.00;0.00;;;;;;;18.60;60.20;98003.41;8285818;28;20552;-80
2022/10/31 18:31:10;;;;;;;0.00;0.00;;;;;;;18.57;63.44;97991.34;8285595;28;20264;-76
2022/10/31 18:35:13;;;;;;;0.00;0.00;;;;;;;18.49;60.41;97978.84;8286173;28;20240;-81
2022/10/31 18:39:16;;;;;;;0.00;0.00;;;;;;;18.97;58.95;97985.69;8286143;28;20259;-82
2022/10/31 18:43:20;;;;;;;0.00;0.00;;;;;;;19.02;58.43;97977.44;8286296;28;20386;-82
2022/10/31 18:47:23;;;;;;;0.10;0.10;;;;;;;19.06;57.69;97973.63;8285903;28;20240;-82
2022/10/31 18:51:26;;;;;;;0.00;0.00;;;;;;;18.88;57.78;97968.84;8285461;28;20236;-81
2022/10/31 18:55:29;;;;;;;0.00;0.00;;;;;;;18.59;58.88;97962.41;8285267;28;20238;-82
2022/10/31 18:59:33;;;;;;;0.00;0.00;;;;;;;18.65;58.93;97968.00;8285783;28;20231;-82
2022/10/31 19:03:37;;;;;;;0.00;0.00;;;;;;;18.54;59.03;97973.22;8284985;28;20231;-81
2022/10/31 19:07:39;;;;;;;0.00;0.00;;;;;;;18.46;58.16;97973.81;8284953;28;20228;-82
2022/10/31 19:11:42;;;;;;;0.00;0.00;;;;;;;18.47;57.79;97970.25;8284698;28;20248;-83
2022/10/31 19:15:47;;;;;;;0.00;0.00;;;;;;;18.53;56.96;97963.72;8285176;28;20232;-80
2022/10/31 19:19:49;;;;;;;0.00;0.00;;;;;;;18.23;58.02;97959.84;8284961;28;20233;-83
2022/10/31 19:23:55;;;;;;;0.00;0.00;;;;;;;18.10;58.30;97948.63;8284032;28;20240;-79